Time;durP1;ratioP1;P1;durP2;ratioP2;P2;SDS_P1;SDS_P2;PMS_P1;PMS_P2;Temp;Humidity;BMP_temperature;BMP_pressure;BME280_temperature;BME280_humidity;BME280_pressure;Samples;Min_cycle;Max_cycle;Signal;HPM_P1;HPM_P2
2022/05/11 00:00:35;;;;;;;9.20;4.30;;;;;;;-141.50;100.00;63355.56;5096721;28;20087;-79
2022/05/11 00:03:02;;;;;;;6.40;4.00;;;;;;;-141.50;100.00;63355.56;5078180;28;20059;-78
2022/05/11 00:05:32;;;;;;;8.70;4.00;;;;;;;-141.50;100.00;63355.56;5083510;28;20039;-78
2022/05/11 00:07:59;;;;;;;7.75;4.10;;;;;;;-141.50;100.00;63355.56;5116991;28;20465;-79
2022/05/11 00:10:25;;;;;;;7.72;4.10;;;;;;;-141.50;100.00;63355.56;5118135;28;20123;-78
2022/05/11 00:12:52;;;;;;;6.88;3.80;;;;;;;-141.50;100.00;63355.56;5100197;28;20086;-79
2022/05/11 00:15:21;;;;;;;7.75;4.35;;;;;;;-141.50;100.00;63355.56;5109475;28;20070;-76
2022/05/11 00:17:48;;;;;;;9.90;4.38;;;;;;;-141.50;100.00;63355.56;5136497;28;20081;-78
2022/05/11 00:20:16;;;;;;;8.55;4.30;;;;;;;-141.50;100.00;63355.56;5120298;28;20032;-81
2022/05/11 00:22:43;;;;;;;7.70;4.38;;;;;;;-141.50;100.00;63355.56;5125658;28;20059;-82
2022/05/11 00:25:13;;;;;;;10.50;4.22;;;;;;;-141.50;100.00;63355.56;5094870;28;20059;-85
2022/05/11 00:27:40;;;;;;;6.85;4.13;;;;;;;-141.50;100.00;63355.56;5101006;28;20579;-82
2022/05/11 00:30:07;;;;;;;8.43;4.30;;;;;;;-141.50;100.00;63355.56;5092617;28;20044;-85
2022/05/11 00:32:34;;;;;;;8.65;4.28;;;;;;;-141.50;100.00;63355.56;5074612;28;20134;-78
2022/05/11 00:35:00;;;;;;;7.45;4.00;;;;;;;-141.50;100.00;63355.56;5094379;28;20060;-84
2022/05/11 00:37:28;;;;;;;9.85;4.32;;;;;;;-141.50;100.00;63355.56;5094073;28;20431;-83
2022/05/11 00:39:54;;;;;;;6.40;4.40;;;;;;;-141.50;100.00;63355.56;5092935;28;20059;-84
2022/05/11 00:42:21;;;;;;;7.90;4.35;;;;;;;-141.50;100.00;63355.56;5093529;28;20495;-83
2022/05/11 00:44:47;;;;;;;10.07;4.60;;;;;;;-141.50;100.00;63355.56;5074504;28;20083;-82
2022/05/11 00:47:30;;;;;;;7.93;4.53;;;;;;;-141.50;100.00;63355.56;5096092;28;20120;-84
2022/05/11 00:50:06;;;;;;;8.15;4.40;;;;;;;-141.50;100.00;63355.56;5097187;28;20052;-84
2022/05/11 00:52:41;;;;;;;;;;;;;;;-141.50;100.00;63355.56;5085251;28;20056;-85
2022/05/11 00:55:22;;;;;;;6.47;3.95;;;;;;;-141.50;100.00;63355.56;5108367;28;19920;-82
2022/05/11 00:57:55;;;;;;;7.38;4.15;;;;;;;-141.50;100.00;63355.56;5077672;28;20404;-85
2022/05/11 01:00:23;;;;;;;5.50;4.35;;;;;;;-141.50;100.00;63355.56;5077474;28;20052;-83
2022/05/11 01:03:05;;;;;;;8.38;3.88;;;;;;;-141.50;100.00;63355.56;5095789;28;20063;-86
2022/05/11 01:05:31;;;;;;;8.13;4.10;;;;;;;-141.50;100.00;63355.56;5107293;28;20044;-82
2022/05/11 01:07:59;;;;;;;7.40;4.25;;;;;;;-141.50;100.00;63355.56;5094046;28;20132;-84
2022/05/11 01:10:28;;;;;;;7.78;4.22;;;;;;;-141.50;100.00;63355.56;5098058;28;20195;-79
2022/05/11 01:12:58;;;;;;;8.55;4.30;;;;;;;-141.50;100.00;63355.56;5098145;28;20095;-86
2022/05/11 01:15:29;;;;;;;5.85;3.80;;;;;;;-141.50;100.00;63355.56;5115637;28;20051;-84
2022/05/11 01:17:56;;;;;;;7.47;3.90;;;;;;;-141.50;100.00;63355.56;5095558;28;20051;-80
2022/05/11 01:20:24;;;;;;;7.60;4.40;;;;;;;-141.50;100.00;63355.56;5101092;28;20048;-82
2022/05/11 01:22:53;;;;;;;6.80;4.03;;;;;;;-141.50;100.00;63355.56;5120277;28;20101;-79
2022/05/11 01:25:20;;;;;;;9.43;4.20;;;;;;;-141.50;100.00;63355.56;5110198;28;20048;-81
2022/05/11 01:27:48;;;;;;;4.53;3.78;;;;;;;-141.50;100.00;63355.56;5085861;28;20386;-80
2022/05/11 01:30:21;;;;;;;6.75;4.15;;;;;;;-141.50;100.00;63355.56;5085110;28;20036;-81
2022/05/11 01:32:54;;;;;;;8.82;4.28;;;;;;;-141.50;100.00;63355.56;5101190;28;20062;-84
2022/05/11 01:35:39;;;;;;;5.82;3.70;;;;;;;-141.50;100.00;63355.56;5102787;28;20052;-82
2022/05/11 01:38:24;;;;;;;10.60;4.10;;;;;;;-141.50;100.00;63355.56;5095812;28;20040;-84
2022/05/11 01:40:50;;;;;;;11.83;4.00;;;;;;;-141.50;100.00;63355.56;5078452;28;20047;-84
2022/05/11 01:43:23;;;;;;;6.00;4.20;;;;;;;-141.50;100.00;63355.56;5078090;28;20111;-82
2022/05/11 01:45:50;;;;;;;10.00;3.83;;;;;;;-141.50;100.00;63355.56;5096061;28;20130;-79
2022/05/11 01:48:18;;;;;;;8.40;4.28;;;;;;;-141.50;100.00;63355.56;5079077;28;20113;-82
2022/05/11 01:50:45;;;;;;;8.93;4.53;;;;;;;-141.50;100.00;63355.56;5096636;28;20125;-79
2022/05/11 01:53:12;;;;;;;8.18;4.30;;;;;;;-141.50;100.00;63355.56;5091025;28;20120;-81
2022/05/11 01:55:39;;;;;;;6.40;4.18;;;;;;;-141.50;100.00;63355.56;5074909;28;20078;-80
2022/05/11 01:58:07;;;;;;;5.20;4.20;;;;;;;-141.50;100.00;63355.56;5093137;28;20496;-82
2022/05/11 02:00:39;;;;;;;7.80;4.10;;;;;;;-141.50;100.00;63355.56;5094871;28;20052;-81
2022/05/11 02:03:06;;;;;;;8.25;4.18;;;;;;;-141.50;100.00;63355.56;5095679;28;20488;-82
2022/05/11 02:08:18;;;;;;;6.80;4.20;;;;;;;-141.50;100.00;63355.56;5117394;28;20120;-82
2022/05/11 02:10:45;;;;;;;8.52;4.35;;;;;;;-141.50;100.00;63355.56;5097727;28;20056;-80
2022/05/11 02:13:12;;;;;;;11.48;4.40;;;;;;;-141.50;100.00;63355.56;5115714;28;20051;-79
2022/05/11 02:15:38;;;;;;;6.95;4.53;;;;;;;-141.50;100.00;63355.56;5116178;28;20427;-81
2022/05/11 02:18:05;;;;;;;9.35;4.50;;;;;;;-141.50;100.00;63355.56;5114997;28;20400;-81
2022/05/11 02:20:33;;;;;;;9.45;4.78;;;;;;;-141.50;100.00;63355.56;5113991;28;20044;-81
2022/05/11 02:23:00;;;;;;;7.43;4.28;;;;;;;-141.50;100.00;63355.56;5115767;28;20085;-84
2022/05/11 02:25:27;;;;;;;5.88;4.10;;;;;;;-141.50;100.00;63355.56;5101812;28;20060;-82
2022/05/11 02:27:54;;;;;;;5.25;4.25;;;;;;;-141.50;100.00;63355.56;5099173;28;20067;-82
2022/05/11 02:30:24;;;;;;;8.25;4.50;;;;;;;-141.50;100.00;63355.56;5096168;28;20491;-82
2022/05/11 02:32:51;;;;;;;10.00;4.50;;;;;;;-141.50;100.00;63355.56;5096031;28;20423;-81
2022/05/11 02:35:19;;;;;;;8.18;4.10;;;;;;;-141.50;100.00;63355.56;5095637;28;20139;-81
2022/05/11 02:37:50;;;;;;;6.05;4.20;;;;;;;-141.50;100.00;63355.56;5095034;28;20105;-79
2022/05/11 02:40:29;;;;;;;9.52;4.65;;;;;;;-141.50;100.00;63355.56;5076738;28;20051;-80
2022/05/11 02:42:56;;;;;;;6.45;4.85;;;;;;;-141.50;100.00;63355.56;5076527;28;20051;-80
2022/05/11 02:45:26;;;;;;;9.60;4.60;;;;;;;-141.50;100.00;63355.56;5095126;28;20052;-80
2022/05/11 02:47:54;;;;;;;9.95;4.75;;;;;;;-141.50;100.00;63355.56;5072555;28;20056;-78
2022/05/11 02:50:24;;;;;;;9.38;4.93;;;;;;;-141.50;100.00;63355.56;5071486;28;20048;-80
2022/05/11 02:52:52;;;;;;;9.45;4.57;;;;;;;-141.50;100.00;63355.56;5092040;28;20171;-81
2022/05/11 02:55:18;;;;;;;6.97;4.15;;;;;;;-141.50;100.00;63355.56;5092536;28;20092;-80
2022/05/11 02:57:45;;;;;;;4.72;3.97;;;;;;;-141.50;100.00;63355.56;5093156;28;20052;-78
2022/05/11 03:00:15;;;;;;;9.77;4.35;;;;;;;-141.50;100.00;63355.56;5074866;28;20097;-80
2022/05/11 03:02:41;;;;;;;6.15;4.40;;;;;;;-141.50;100.00;63355.56;5074437;28;20052;-78
2022/05/11 03:05:12;;;;;;;9.05;4.50;;;;;;;-141.50;100.00;63355.56;5092503;28;20102;-78
2022/05/11 03:07:39;;;;;;;6.75;4.75;;;;;;;-141.50;100.00;63355.56;5057826;28;20106;-80
2022/05/11 03:10:08;;;;;;;6.45;4.38;;;;;;;-141.50;100.00;63355.56;5062455;28;20554;-79
2022/05/11 03:12:35;;;;;;;7.38;4.50;;;;;;;-141.50;100.00;63355.56;5059735;28;20060;-78
2022/05/11 03:15:07;;;;;;;7.88;3.92;;;;;;;-141.50;100.00;63355.56;5074265;28;20493;-78
2022/05/11 03:17:36;;;;;;;8.75;4.45;;;;;;;-141.50;100.00;63355.56;5071668;28;20082;-80
2022/05/11 03:20:06;;;;;;;7.65;4.35;;;;;;;-141.50;100.00;63355.56;5074431;28;20074;-80
2022/05/11 03:22:33;;;;;;;8.23;4.25;;;;;;;-141.50;100.00;63355.56;5073470;28;20505;-80
2022/05/11 03:24:59;;;;;;;5.47;4.10;;;;;;;-141.50;100.00;63355.56;5083710;28;20472;-81
2022/05/11 03:27:26;;;;;;;9.65;4.50;;;;;;;-141.50;100.00;63355.56;5076487;28;20443;-79
2022/05/11 03:29:55;;;;;;;7.10;4.30;;;;;;;-141.50;100.00;63355.56;5092883;28;20044;-79
2022/05/11 03:35:10;;;;;;;7.93;4.40;;;;;;;-141.50;100.00;63355.56;5076195;28;20438;-78
2022/05/11 03:37:38;;;;;;;7.72;4.60;;;;;;;-141.50;100.00;63355.56;5055708;28;20287;-81
2022/05/11 03:40:07;;;;;;;8.52;4.30;;;;;;;-141.50;100.00;63355.56;5070020;28;20075;-79
2022/05/11 03:42:36;;;;;;;7.75;4.22;;;;;;;-141.50;100.00;63355.56;5051613;28;20087;-81
2022/05/11 03:45:08;;;;;;;8.50;4.45;;;;;;;-141.50;100.00;63355.56;5071366;28;20060;-79
2022/05/11 03:47:36;;;;;;;5.85;4.43;;;;;;;-141.50;100.00;63355.56;5069562;28;20076;-78
2022/05/11 03:50:03;;;;;;;6.22;4.60;;;;;;;-141.50;100.00;63355.56;5070125;28;20131;-80
2022/05/11 03:52:29;;;;;;;11.68;4.18;;;;;;;-141.50;100.00;63355.56;5052039;28;20076;-78
2022/05/11 03:54:56;;;;;;;6.72;4.50;;;;;;;-141.50;100.00;63355.56;5072456;28;20063;-83
2022/05/11 03:57:22;;;;;;;12.70;3.90;;;;;;;-141.50;100.00;63355.56;5080477;28;20048;-78
2022/05/11 03:59:49;;;;;;;8.27;4.10;;;;;;;-141.50;100.00;63355.56;5083510;28;20125;-80
2022/05/11 04:02:16;;;;;;;10.40;4.10;;;;;;;-141.50;100.00;63355.56;5082344;28;20083;-78
2022/05/11 04:04:43;;;;;;;7.60;4.10;;;;;;;-141.50;100.00;63355.56;5092485;28;20074;-80
2022/05/11 04:07:09;;;;;;;9.77;4.50;;;;;;;-141.50;100.00;63355.56;5114431;28;20606;-81
2022/05/11 04:09:36;;;;;;;6.47;4.15;;;;;;;-141.50;100.00;63355.56;5122608;28;20052;-80
2022/05/11 04:12:03;;;;;;;5.05;4.20;;;;;;;-141.50;100.00;63355.56;5117176;28;20107;-81
2022/05/11 04:14:30;;;;;;;8.52;4.57;;;;;;;-141.50;100.00;63355.56;5114397;28;20062;-77
2022/05/11 04:16:59;;;;;;;6.20;3.83;;;;;;;-141.50;100.00;63355.56;5094472;28;20113;-78
2022/05/11 04:19:27;;;;;;;6.65;3.80;;;;;;;-141.50;100.00;63355.56;5094782;28;20044;-80
2022/05/11 04:21:53;;;;;;;9.10;4.18;;;;;;;-141.50;100.00;63355.56;5096106;28;20134;-81
2022/05/11 04:24:20;;;;;;;5.80;4.00;;;;;;;-141.50;100.00;63355.56;5112848;28;20052;-80
2022/05/11 04:26:47;;;;;;;9.40;4.15;;;;;;;-141.50;100.00;63355.56;5095170;28;20121;-83
2022/05/11 04:29:15;;;;;;;8.77;4.07;;;;;;;-141.50;100.00;63355.56;5093945;28;20098;-79
2022/05/11 04:31:41;;;;;;;7.50;4.28;;;;;;;-141.50;100.00;63355.56;5074440;28;20052;-80
2022/05/11 04:34:11;;;;;;;10.60;4.38;;;;;;;-141.50;100.00;63355.56;5095000;28;20063;-78
2022/05/11 04:36:39;;;;;;;9.98;4.47;;;;;;;-141.50;100.00;63355.56;5103996;28;20043;-77
2022/05/11 04:39:06;;;;;;;7.40;4.00;;;;;;;-141.50;100.00;63355.56;5116432;28;20032;-76
2022/05/11 04:41:38;;;;;;;9.38;4.53;;;;;;;-141.50;100.00;63355.56;5099558;28;20081;-76
2022/05/11 04:44:05;;;;;;;6.22;4.10;;;;;;;-141.50;100.00;63355.56;5114194;28;20044;-78
2022/05/11 04:46:35;;;;;;;6.55;3.67;;;;;;;-141.50;100.00;63355.56;5078594;28;20123;-81
2022/05/11 04:49:19;;;;;;;7.18;4.05;;;;;;;-141.50;100.00;63355.56;5079539;28;20052;-80
2022/05/11 04:52:00;;;;;;;8.57;4.20;;;;;;;-141.50;100.00;63355.56;5098424;28;20064;-79
2022/05/11 04:54:27;;;;;;;8.48;4.03;;;;;;;-141.50;100.00;63355.56;5073894;28;20122;-80
2022/05/11 04:56:54;;;;;;;5.50;3.95;;;;;;;-141.50;100.00;63355.56;5074509;28;20044;-78
2022/05/11 04:59:22;;;;;;;16.33;4.50;;;;;;;-141.50;100.00;63355.56;5054074;28;20040;-77
2022/05/11 05:01:48;;;;;;;9.13;4.10;;;;;;;-141.50;100.00;63355.56;5052906;28;20053;-77
2022/05/11 05:04:15;;;;;;;6.97;4.28;;;;;;;-141.50;100.00;63355.56;5081183;28;20060;-78
2022/05/11 05:06:42;;;;;;;6.03;4.25;;;;;;;-141.50;100.00;63355.56;5097459;28;20054;-81
2022/05/11 05:09:09;;;;;;;8.88;4.18;;;;;;;-141.50;100.00;63355.56;5103219;28;20048;-81
2022/05/11 05:11:35;;;;;;;5.95;3.97;;;;;;;-141.50;100.00;63355.56;5118492;28;20060;-81
2022/05/11 05:14:04;;;;;;;8.73;4.25;;;;;;;-141.50;100.00;63355.56;5098680;28;20105;-81
2022/05/11 05:16:33;;;;;;;7.32;4.22;;;;;;;-141.50;100.00;63355.56;5111873;28;20054;-79
2022/05/11 05:18:59;;;;;;;7.45;4.75;;;;;;;-141.50;100.00;63355.56;5112720;28;20090;-78
2022/05/11 05:21:26;;;;;;;8.10;4.18;;;;;;;-141.50;100.00;63355.56;5113217;28;20122;-78
2022/05/11 05:23:52;;;;;;;6.60;4.00;;;;;;;-141.50;100.00;63355.56;5112976;28;20130;-79
2022/05/11 05:26:19;;;;;;;7.53;3.92;;;;;;;-141.50;100.00;63355.56;5078409;28;20143;-76
2022/05/11 05:31:31;;;;;;;13.50;4.05;;;;;;;-141.50;100.00;63355.56;5098359;28;20075;-77
2022/05/11 05:34:01;;;;;;;11.27;4.38;;;;;;;-141.50;100.00;63355.56;5082850;28;20056;-83
2022/05/11 05:36:33;;;;;;;9.38;4.15;;;;;;;-141.50;100.00;63355.56;5099820;28;20048;-77
2022/05/11 05:38:59;;;;;;;6.30;4.03;;;;;;;-141.50;100.00;63355.56;5081961;28;20113;-79
2022/05/11 05:41:27;;;;;;;8.85;4.13;;;;;;;-141.50;100.00;63355.56;5104308;28;20047;-78
2022/05/11 05:43:54;;;;;;;8.27;4.20;;;;;;;-141.50;100.00;63355.56;5106210;28;20520;-82
2022/05/11 05:46:22;;;;;;;8.70;3.85;;;;;;;-141.50;100.00;63355.56;5086273;28;20561;-79
2022/05/11 05:48:50;;;;;;;12.75;4.10;;;;;;;-141.50;100.00;63355.56;5097626;28;20056;-81
2022/05/11 05:51:18;;;;;;;8.73;3.90;;;;;;;-141.50;100.00;63355.56;5096504;28;20101;-81
2022/05/11 05:53:47;;;;;;;6.78;4.07;;;;;;;-141.50;100.00;63355.56;5078207;28;20512;-82
2022/05/11 05:56:14;;;;;;;6.70;4.07;;;;;;;-141.50;100.00;63355.56;5097133;28;20044;-81
2022/05/11 05:58:44;;;;;;;7.63;4.10;;;;;;;-141.50;100.00;63355.56;5098233;28;20074;-80
2022/05/11 06:01:12;;;;;;;8.80;3.67;;;;;;;-141.50;100.00;63355.56;5076299;28;20106;-79
2022/05/11 06:03:40;;;;;;;9.48;3.85;;;;;;;-141.50;100.00;63355.56;5072341;28;20126;-79
2022/05/11 06:06:08;;;;;;;7.28;4.13;;;;;;;-141.50;100.00;63355.56;5100443;28;20044;-79
2022/05/11 06:08:36;;;;;;;7.03;4.20;;;;;;;-141.50;100.00;63355.56;5113110;28;20101;-78
2022/05/11 06:11:06;;;;;;;6.45;3.88;;;;;;;-141.50;100.00;63355.56;5113527;28;20130;-78
2022/05/11 06:13:33;;;;;;;8.80;4.55;;;;;;;-141.50;100.00;63355.56;5095605;28;20108;-80
2022/05/11 06:16:00;;;;;;;8.95;4.13;;;;;;;-141.50;100.00;63355.56;5095780;28;20056;-78
2022/05/11 06:18:27;;;;;;;7.15;3.95;;;;;;;-141.50;100.00;63355.56;5095438;28;20081;-77
2022/05/11 06:20:55;;;;;;;7.85;4.22;;;;;;;-141.50;100.00;63355.56;5114349;28;20044;-79
2022/05/11 06:23:21;;;;;;;6.10;3.78;;;;;;;-141.50;100.00;63355.56;5114219;28;20048;-78
2022/05/11 06:25:51;;;;;;;7.28;4.35;;;;;;;-141.50;100.00;63355.56;5081006;28;20071;-78
2022/05/11 06:28:20;;;;;;;9.45;3.97;;;;;;;-141.50;100.00;63355.56;5095372;28;20080;-79
2022/05/11 06:31:10;;;;;;;5.80;4.13;;;;;;;-141.50;100.00;63355.56;5079333;28;20048;-79
2022/05/11 06:33:46;;;;;;;10.85;3.97;;;;;;;-141.50;100.00;63355.56;5093590;28;20052;-81
2022/05/11 06:36:13;;;;;;;6.07;4.50;;;;;;;-141.50;100.00;63355.56;5075813;28;20083;-81
2022/05/11 06:38:40;;;;;;;8.63;4.60;;;;;;;-141.50;100.00;63355.56;5095847;28;20072;-80
2022/05/11 06:41:14;;;;;;;10.40;3.88;;;;;;;-141.50;100.00;63355.56;5075442;28;20048;-79
2022/05/11 06:43:41;;;;;;;9.85;3.78;;;;;;;-141.50;100.00;63355.56;5079620;28;20055;-79
2022/05/11 06:46:08;;;;;;;11.63;4.40;;;;;;;-141.50;100.00;63355.56;5073364;28;20094;-78
2022/05/11 06:48:35;;;;;;;7.35;4.00;;;;;;;-141.50;100.00;63355.56;5092425;28;20154;-79
2022/05/11 06:51:01;;;;;;;8.05;4.05;;;;;;;-141.50;100.00;63355.56;5074128;28;20075;-81
2022/05/11 06:53:28;;;;;;;6.45;3.88;;;;;;;-141.50;100.00;63355.56;5075867;28;20154;-80
2022/05/11 07:01:30;;;;;;;8.73;4.10;;;;;;;-141.50;100.00;63355.56;5092523;28;20123;-81
2022/05/11 07:03:57;;;;;;;8.93;4.10;;;;;;;-141.50;100.00;63355.56;5074281;28;20606;-78
2022/05/11 07:06:23;;;;;;;5.13;3.47;;;;;;;-141.50;100.00;63355.56;5104730;28;20035;-79
2022/05/11 07:08:50;;;;;;;7.97;3.63;;;;;;;-141.50;100.00;63355.56;5114159;28;20047;-80
2022/05/11 07:14:03;;;;;;;4.88;3.38;;;;;;;-141.50;100.00;63355.56;5114607;28;20079;-81
2022/05/11 07:16:29;;;;;;;5.47;3.70;;;;;;;-141.50;100.00;63355.56;5095346;28;20055;-80
2022/05/11 07:18:56;;;;;;;8.00;3.72;;;;;;;-141.50;100.00;63355.56;5094481;28;20051;-86
2022/05/11 07:21:22;;;;;;;7.20;3.50;;;;;;;-141.50;100.00;63355.56;5094936;28;20130;-85
2022/05/11 07:23:49;;;;;;;8.23;3.70;;;;;;;-141.50;100.00;63355.56;5112330;28;20043;-86
2022/05/11 07:26:18;;;;;;;9.45;3.28;;;;;;;-141.50;100.00;63355.56;5094128;28;20113;-85
2022/05/11 07:28:45;;;;;;;8.77;3.65;;;;;;;-141.50;100.00;63355.56;5085268;28;20056;-80
2022/05/11 07:31:11;;;;;;;6.50;3.78;;;;;;;-141.50;100.00;63355.56;5096025;28;20048;-86
2022/05/11 07:33:38;;;;;;;10.07;3.70;;;;;;;-141.50;100.00;63355.56;5092762;28;20052;-79
2022/05/11 07:36:05;;;;;;;5.20;3.30;;;;;;;-141.50;100.00;63355.56;5071276;28;20129;-83
2022/05/11 07:38:34;;;;;;;8.07;3.70;;;;;;;-141.50;100.00;63355.56;5071086;28;20108;-82
2022/05/11 07:41:01;;;;;;;5.47;4.05;;;;;;;-141.50;100.00;63355.56;5090296;28;20048;-86
2022/05/11 07:43:28;;;;;;;6.60;3.47;;;;;;;-141.50;100.00;63355.56;5072815;28;20116;-84
2022/05/11 07:45:55;;;;;;;16.98;3.63;;;;;;;-141.50;100.00;63355.56;5073236;28;20071;-83
2022/05/11 07:48:22;;;;;;;5.95;3.50;;;;;;;-141.50;100.00;63355.56;5090653;28;20467;-81
2022/05/11 07:50:48;;;;;;;8.98;3.33;;;;;;;-141.50;100.00;63355.56;5074237;28;20123;-81
2022/05/11 07:53:18;;;;;;;7.10;3.50;;;;;;;-141.50;100.00;63355.56;5092055;28;20109;-83
2022/05/11 07:55:45;;;;;;;7.97;3.38;;;;;;;-141.50;100.00;63355.56;5076439;28;20506;-79
2022/05/11 08:01:02;;;;;;;4.35;3.17;;;;;;;-141.50;100.00;63355.56;5064983;28;20044;-83
2022/05/11 08:03:29;;;;;;;8.50;3.40;;;;;;;-141.50;100.00;63355.56;5096894;28;20048;-80
2022/05/11 08:05:57;;;;;;;7.28;3.35;;;;;;;-141.50;100.00;63355.56;5091459;28;20103;-80
2022/05/11 08:08:24;;;;;;;7.20;3.30;;;;;;;-141.50;100.00;63355.56;5118100;28;20105;-83
2022/05/11 08:10:50;;;;;;;6.75;3.60;;;;;;;-141.50;100.00;63355.56;5119004;28;20051;-82
2022/05/11 08:13:17;;;;;;;5.18;3.28;;;;;;;-141.50;100.00;63355.56;5119832;28;20078;-81
2022/05/11 08:15:47;;;;;;;10.60;3.53;;;;;;;-141.50;100.00;63355.56;5118578;28;20052;-83
2022/05/11 08:18:15;;;;;;;6.05;3.60;;;;;;;-141.50;100.00;63355.56;5098857;28;20061;-80
2022/05/11 08:20:43;;;;;;;9.35;3.55;;;;;;;-141.50;100.00;63355.56;5104223;28;20150;-81
2022/05/11 08:23:11;;;;;;;10.10;3.35;;;;;;;-141.50;100.00;63355.56;5114411;28;20051;-82
2022/05/11 08:25:40;;;;;;;8.13;3.70;;;;;;;-141.50;100.00;63355.56;5086432;28;20939;-77
2022/05/11 08:28:19;;;;;;;9.05;3.50;;;;;;;-141.50;100.00;63355.56;5087338;28;20520;-82
2022/05/11 08:33:35;;;;;;;8.95;3.17;;;;;;;-141.50;100.00;63355.56;5096751;28;20058;-81
2022/05/11 08:36:24;;;;;;;8.05;3.30;;;;;;;-141.50;100.00;63355.56;5079093;28;20055;-82
2022/05/11 08:38:56;;;;;;;7.85;3.42;;;;;;;-141.50;100.00;63355.56;5096051;28;20048;-81
2022/05/11 08:41:49;;;;;;;10.68;3.40;;;;;;;-141.50;100.00;63355.56;5097092;28;20093;-82
2022/05/11 08:44:19;;;;;;;6.22;3.30;;;;;;;-141.50;100.00;63355.56;5081347;28;20048;-84
2022/05/11 08:46:57;;;;;;;8.15;3.08;;;;;;;-141.50;100.00;63355.56;5098768;28;20078;-86
2022/05/11 08:49:59;;;;;;;9.15;3.25;;;;;;;-141.50;100.00;63355.56;5095907;28;20409;-85
2022/05/11 08:52:44;;;;;;;9.68;3.13;;;;;;;-141.50;100.00;63355.56;5096926;28;20078;-82
2022/05/11 08:55:30;;;;;;;11.02;3.30;;;;;;;-141.50;100.00;63355.56;5079578;28;20063;-85
2022/05/11 08:58:04;;;;;;;6.95;3.28;;;;;;;-141.50;100.00;63355.56;5079248;28;20109;-86
2022/05/11 09:00:30;;;;;;;12.65;3.33;;;;;;;-141.50;100.00;63355.56;5092561;28;20040;-80
2022/05/11 09:03:05;;;;;;;6.82;3.05;;;;;;;-141.50;100.00;63355.56;5100163;28;20091;-80
2022/05/11 09:05:32;;;;;;;8.57;2.78;;;;;;;-141.50;100.00;63355.56;5111701;28;20031;-78
2022/05/11 09:07:59;;;;;;;7.75;3.38;;;;;;;-141.50;100.00;63355.56;5084992;28;20044;-82
2022/05/11 09:10:33;;;;;;;12.00;3.10;;;;;;;-141.50;100.00;63355.56;5091830;28;20048;-79
2022/05/11 09:13:03;;;;;;;8.48;2.80;;;;;;;-141.50;100.00;63355.56;5077377;28;20528;-84
2022/05/11 09:15:51;;;;;;;7.40;3.47;;;;;;;-141.50;100.00;63355.56;5096061;28;20165;-83
2022/05/11 09:18:18;;;;;;;5.63;2.95;;;;;;;-141.50;100.00;63355.56;5096579;28;20070;-85
2022/05/11 09:20:52;;;;;;;5.00;3.20;;;;;;;-141.50;100.00;63355.56;5096829;28;20047;-81
2022/05/11 09:23:31;;;;;;;7.45;3.05;;;;;;;-141.50;100.00;63355.56;5078302;28;20044;-84
2022/05/11 09:26:04;;;;;;;6.07;3.10;;;;;;;-141.50;100.00;63355.56;5074028;28;20045;-84
2022/05/11 09:28:34;;;;;;;10.95;3.60;;;;;;;-141.50;100.00;63355.56;5071769;28;20088;-82
2022/05/11 09:31:07;;;;;;;12.23;3.15;;;;;;;-141.50;100.00;63355.56;5071582;28;20400;-80
2022/05/11 09:33:39;;;;;;;8.90;3.22;;;;;;;-141.50;100.00;63355.56;5072132;28;20098;-79
2022/05/11 09:36:11;;;;;;;6.88;3.35;;;;;;;-141.50;100.00;63355.56;5073005;28;20048;-83
2022/05/11 09:39:06;;;;;;;9.60;3.20;;;;;;;-141.50;100.00;63355.56;5079165;28;20083;-81
2022/05/11 09:41:33;;;;;;;4.90;3.17;;;;;;;-141.50;100.00;63355.56;5089170;28;20096;-81
2022/05/11 09:44:23;;;;;;;9.23;3.35;;;;;;;-141.50;100.00;63355.56;5096652;28;20705;-78
2022/05/11 09:46:51;;;;;;;4.30;3.17;;;;;;;-141.50;100.00;63355.56;5079718;28;20071;-78
2022/05/11 09:49:17;;;;;;;8.05;2.88;;;;;;;-141.50;100.00;63355.56;5096869;28;20033;-80
2022/05/11 09:51:47;;;;;;;9.20;2.75;;;;;;;-141.50;100.00;63355.56;5096249;28;20039;-80
2022/05/11 09:54:38;;;;;;;5.45;2.80;;;;;;;-141.50;100.00;63355.56;5096279;28;20032;-79
2022/05/11 09:57:05;;;;;;;5.35;2.60;;;;;;;-141.50;100.00;63355.56;5074867;28;20028;-80
2022/05/11 09:59:37;;;;;;;9.25;3.00;;;;;;;-141.50;100.00;63355.56;5089630;28;20044;-83
2022/05/11 10:02:36;;;;;;;7.28;2.60;;;;;;;-141.50;100.00;63355.56;5059279;28;20570;-84
2022/05/11 10:05:08;;;;;;;5.40;2.47;;;;;;;-141.50;100.00;63355.56;5075869;28;20079;-79
2022/05/11 10:07:44;;;;;;;6.15;2.60;;;;;;;-141.50;100.00;63355.56;5097855;28;20047;-81
2022/05/11 10:10:33;;;;;;;5.00;2.47;;;;;;;-141.50;100.00;63355.56;5116127;28;20063;-82
2022/05/11 10:13:23;;;;;;;8.73;2.80;;;;;;;-141.50;100.00;63355.56;5115885;28;20074;-81
2022/05/11 10:21:53;;;;;;;11.13;2.72;;;;;;;-141.50;100.00;63355.56;5110314;28;20067;-83
2022/05/11 10:24:56;;;;;;;6.60;2.78;;;;;;;-141.50;100.00;63355.56;5111610;28;20101;-80
2022/05/11 10:27:29;;;;;;;7.13;2.75;;;;;;;-141.50;100.00;63355.56;5117925;28;20079;-80
2022/05/11 10:30:16;;;;;;;6.63;3.15;;;;;;;-141.50;100.00;63355.56;5108699;28;20051;-79
2022/05/11 10:32:55;;;;;;;7.68;2.55;;;;;;;-141.50;100.00;63355.56;5126801;28;20048;-79
2022/05/11 10:35:36;;;;;;;9.45;2.67;;;;;;;-141.50;100.00;63355.56;5108810;28;20055;-79
2022/05/11 10:38:18;;;;;;;4.65;2.70;;;;;;;-141.50;100.00;63355.56;5098913;28;20082;-86
2022/05/11 10:41:01;;;;;;;18.80;2.95;;;;;;;-141.50;100.00;63355.56;5116334;28;20051;-81
2022/05/11 10:43:31;;;;;;;5.45;2.70;;;;;;;-141.50;100.00;63355.56;5095326;28;20510;-81
2022/05/11 10:46:30;;;;;;;4.78;2.60;;;;;;;-141.50;100.00;63355.56;5098889;28;20086;-81
2022/05/11 10:49:15;;;;;;;3.67;2.70;;;;;;;-141.50;100.00;63355.56;5114186;28;20054;-85
2022/05/11 10:51:55;;;;;;;4.37;2.77;;;;;;;-141.50;100.00;63355.56;5112528;28;20105;-82
2022/05/11 10:54:47;;;;;;;6.63;2.70;;;;;;;-141.50;100.00;63355.56;5096549;28;20082;-80
2022/05/11 10:57:38;;;;;;;11.20;2.53;;;;;;;-141.50;100.00;63355.56;5095088;28;20196;-84
2022/05/11 11:00:09;;;;;;;5.90;2.42;;;;;;;-141.50;100.00;63355.56;5113642;28;20085;-84
2022/05/11 11:03:24;;;;;;;6.00;2.55;;;;;;;-141.50;100.00;63355.56;5114323;28;20411;-86
2022/05/11 11:09:06;;;;;;;7.05;2.45;;;;;;;-141.50;100.00;63355.56;5073649;28;20558;-83
2022/05/11 11:12:21;;;;;;;5.85;2.50;;;;;;;-141.50;100.00;63355.56;5075209;28;20150;-82
2022/05/11 11:14:50;;;;;;;10.40;2.53;;;;;;;-141.50;100.00;63355.56;5073208;28;20102;-80
2022/05/11 11:17:20;;;;;;;4.25;2.42;;;;;;;-141.50;100.00;63355.56;5069720;28;20059;-82
2022/05/11 11:19:51;;;;;;;3.47;2.70;;;;;;;-141.50;100.00;63355.56;5058206;28;20068;-80
2022/05/11 11:22:18;;;;;;;7.60;2.72;;;;;;;-141.50;100.00;63355.56;5085727;28;20052;-81
2022/05/11 11:25:10;;;;;;;4.60;2.55;;;;;;;-141.50;100.00;63355.56;5074648;28;20072;-82
2022/05/11 11:28:02;;;;;;;4.20;2.28;;;;;;;-141.50;100.00;63355.56;5106868;28;20125;-80
2022/05/11 11:30:29;;;;;;;4.03;2.60;;;;;;;-141.50;100.00;63355.56;5095676;28;20448;-84
2022/05/11 11:33:11;;;;;;;6.18;2.50;;;;;;;-141.50;100.00;63355.56;5075309;28;20052;-84
2022/05/11 11:36:19;;;;;;;15.48;2.95;;;;;;;-141.50;100.00;63355.56;5077325;28;20079;-82
2022/05/11 11:38:48;;;;;;;10.32;2.60;;;;;;;-141.50;100.00;63355.56;5029461;28;20239;-82
2022/05/11 11:41:21;;;;;;;8.15;2.53;;;;;;;-141.50;100.00;63355.56;5013074;28;20076;-80
2022/05/11 11:43:57;;;;;;;6.00;2.50;;;;;;;-141.50;100.00;63355.56;5044737;28;20078;-82
2022/05/11 11:46:40;;;;;;;5.85;2.35;;;;;;;-141.50;100.00;63355.56;5091827;28;20052;-81
2022/05/11 11:49:30;;;;;;;11.40;2.75;;;;;;;-141.50;100.00;63355.56;5092154;28;20642;-83
2022/05/11 11:51:56;;;;;;;4.78;2.40;;;;;;;-141.50;100.00;63355.56;5069880;28;20123;-83
2022/05/11 11:54:26;;;;;;;4.53;2.78;;;;;;;-141.50;100.00;63355.56;5091166;28;20494;-81
2022/05/11 11:56:54;;;;;;;6.07;2.80;;;;;;;-141.50;100.00;63355.56;5091914;28;20078;-82
2022/05/11 11:59:24;;;;;;;4.57;2.40;;;;;;;-141.50;100.00;63355.56;5091694;28;20078;-79